sensor_id;sensor_type;location;lat;lon;timestamp;pressure;altitude;pressure_sealevel;temperature;humidity
22096;BME280;24083;55.670;37.568;2023-06-05T00:02:19;99336.84;;;13.49;nan
22096;BME280;24083;55.670;37.568;2023-06-05T00:04:44;99332.34;;;14.13;nan
22096;BME280;24083;55.670;37.568;2023-06-05T00:07:12;99322.00;;;13.95;nan
22096;BME280;24083;55.670;37.568;2023-06-05T00:09:39;99334.78;;;14.30;nan
22096;BME280;24083;55.670;37.568;2023-06-05T00:12:13;99326.53;;;14.36;nan
22096;BME280;24083;55.670;37.568;2023-06-05T00:14:39;99326.94;;;13.85;nan
22096;BME280;24083;55.670;37.568;2023-06-05T00:17:07;99336.72;;;13.67;nan
22096;BME280;24083;55.670;37.568;2023-06-05T00:19:37;99330.00;;;13.47;nan
22096;BME280;24083;55.670;37.568;2023-06-05T00:22:06;99327.25;;;13.64;nan
22096;BME280;24083;55.670;37.568;2023-06-05T00:24:33;99329.31;;;14.04;nan
22096;BME280;24083;55.670;37.568;2023-06-05T00:30:15;99330.63;;;13.67;nan
22096;BME280;24083;55.670;37.568;2023-06-05T00:32:43;99327.63;;;13.42;nan
22096;BME280;24083;55.670;37.568;2023-06-05T00:35:09;99327.94;;;13.68;nan
22096;BME280;24083;55.670;37.568;2023-06-05T00:37:35;99319.53;;;13.77;nan
22096;BME280;24083;55.670;37.568;2023-06-05T00:40:04;99326.19;;;14.28;nan
22096;BME280;24083;55.670;37.568;2023-06-05T00:42:41;99333.53;;;13.62;nan
22096;BME280;24083;55.670;37.568;2023-06-05T00:45:48;99328.28;;;13.62;nan
22096;BME280;24083;55.670;37.568;2023-06-05T00:48:14;99329.66;;;14.72;nan
22096;BME280;24083;55.670;37.568;2023-06-05T00:50:40;99334.38;;;13.46;nan
22096;BME280;24083;55.670;37.568;2023-06-05T00:55:38;99332.66;;;13.77;nan
22096;BME280;24083;55.670;37.568;2023-06-05T00:58:04;99320.16;;;14.12;nan
22096;BME280;24083;55.670;37.568;2023-06-05T01:00:31;99331.59;;;13.80;nan
22096;BME280;24083;55.670;37.568;2023-06-05T01:03:09;99334.75;;;14.01;nan
22096;BME280;24083;55.670;37.568;2023-06-05T01:05:39;99323.69;;;13.96;nan
22096;BME280;24083;55.670;37.568;2023-06-05T01:08:22;99324.72;;;13.93;nan
22096;BME280;24083;55.670;37.568;2023-06-05T01:10:52;99334.69;;;13.56;nan
22096;BME280;24083;55.670;37.568;2023-06-05T01:13:35;99329.63;;;13.69;nan
22096;BME280;24083;55.670;37.568;2023-06-05T01:16:03;99326.25;;;13.67;nan
22096;BME280;24083;55.670;37.568;2023-06-05T01:21:12;99329.31;;;14.04;nan
22096;BME280;24083;55.670;37.568;2023-06-05T01:23:42;99335.44;;;13.74;nan
22096;BME280;24083;55.670;37.568;2023-06-05T01:26:16;99326.09;;;13.54;nan
22096;BME280;24083;55.670;37.568;2023-06-05T01:28:47;99326.97;;;14.00;nan
22096;BME280;24083;55.670;37.568;2023-06-05T01:31:19;99325.13;;;13.71;nan
22096;BME280;24083;55.670;37.568;2023-06-05T01:34:01;99324.47;;;14.42;nan
22096;BME280;24083;55.670;37.568;2023-06-05T01:36:33;99322.75;;;13.97;nan
22096;BME280;24083;55.670;37.568;2023-06-05T01:39:42;99324.25;;;14.01;nan
22096;BME280;24083;55.670;37.568;2023-06-05T01:42:15;99321.84;;;14.42;nan
22096;BME280;24083;55.670;37.568;2023-06-05T01:44:43;99325.59;;;14.37;nan
22096;BME280;24083;55.670;37.568;2023-06-05T01:47:10;99322.03;;;14.09;nan
22096;BME280;24083;55.670;37.568;2023-06-05T01:49:39;99330.66;;;14.12;nan
22096;BME280;24083;55.670;37.568;2023-06-05T01:55:00;99344.25;;;14.33;nan
22096;BME280;24083;55.670;37.568;2023-06-05T01:57:29;99345.66;;;14.24;nan
22096;BME280;24083;55.670;37.568;2023-06-05T02:00:00;99355.47;;;14.20;nan
22096;BME280;24083;55.670;37.568;2023-06-05T02:02:39;99348.53;;;14.19;nan
22096;BME280;24083;55.670;37.568;2023-06-05T02:05:27;99348.72;;;13.39;nan
22096;BME280;24083;55.670;37.568;2023-06-05T02:07:55;99347.13;;;14.14;nan
22096;BME280;24083;55.670;37.568;2023-06-05T02:10:24;99336.53;;;14.15;nan
22096;BME280;24083;55.670;37.568;2023-06-05T02:15:20;99351.06;;;14.21;nan
22096;BME280;24083;55.670;37.568;2023-06-05T02:23:35;99343.03;;;14.24;nan
22096;BME280;24083;55.670;37.568;2023-06-05T02:33:46;99349.75;;;14.14;nan
22096;BME280;24083;55.670;37.568;2023-06-05T02:36:13;99354.28;;;14.55;nan
22096;BME280;24083;55.670;37.568;2023-06-05T02:41:49;99359.88;;;14.34;nan
22096;BME280;24083;55.670;37.568;2023-06-05T02:44:18;99364.56;;;13.84;nan
22096;BME280;24083;55.670;37.568;2023-06-05T02:46:45;99371.44;;;14.01;nan
22096;BME280;24083;55.670;37.568;2023-06-05T02:49:15;99362.38;;;14.21;nan
22096;BME280;24083;55.670;37.568;2023-06-05T02:51:45;99369.00;;;13.98;nan
22096;BME280;24083;55.670;37.568;2023-06-05T02:54:13;99377.47;;;13.57;nan
22096;BME280;24083;55.670;37.568;2023-06-05T03:02:39;99364.50;;;14.00;nan
22096;BME280;24083;55.670;37.568;2023-06-05T03:05:13;99375.81;;;14.46;nan
22096;BME280;24083;55.670;37.568;2023-06-05T03:07:40;99377.34;;;13.74;nan
22096;BME280;24083;55.670;37.568;2023-06-05T03:10:13;99375.22;;;13.81;nan
22096;BME280;24083;55.670;37.568;2023-06-05T03:12:39;99385.91;;;13.62;nan
22096;BME280;24083;55.670;37.568;2023-06-05T03:15:06;99392.63;;;13.34;nan
22096;BME280;24083;55.670;37.568;2023-06-05T03:17:36;99391.81;;;13.17;nan
22096;BME280;24083;55.670;37.568;2023-06-05T03:20:02;99385.91;;;13.62;nan
22096;BME280;24083;55.670;37.568;2023-06-05T03:25:46;99394.34;;;13.67;nan
22096;BME280;24083;55.670;37.568;2023-06-05T03:33:59;99361.81;;;14.76;nan
22096;BME280;24083;55.670;37.568;2023-06-05T03:39:06;99358.72;;;15.25;nan
22096;BME280;24083;55.670;37.568;2023-06-05T03:44:03;99362.94;;;15.96;nan
22096;BME280;24083;55.670;37.568;2023-06-05T03:46:33;99352.88;;;16.15;nan
22096;BME280;24083;55.670;37.568;2023-06-05T03:49:01;99352.25;;;16.38;nan
22096;BME280;24083;55.670;37.568;2023-06-05T03:57:49;99350.34;;;16.53;nan
22096;BME280;24083;55.670;37.568;2023-06-05T04:00:22;99352.34;;;15.70;nan
22096;BME280;24083;55.670;37.568;2023-06-05T04:06:24;99355.63;;;16.27;nan
22096;BME280;24083;55.670;37.568;2023-06-05T04:08:51;99349.84;;;16.35;nan
22096;BME280;24083;55.670;37.568;2023-06-05T04:11:17;99351.31;;;16.26;nan
22096;BME280;24083;55.670;37.568;2023-06-05T04:16:36;99348.38;;;17.06;nan
22096;BME280;24083;55.670;37.568;2023-06-05T04:21:55;99351.22;;;16.40;nan
22096;BME280;24083;55.670;37.568;2023-06-05T04:24:24;99355.53;;;15.75;nan
22096;BME280;24083;55.670;37.568;2023-06-05T04:26:50;99344.00;;;15.91;nan
22096;BME280;24083;55.670;37.568;2023-06-05T04:29:18;99365.94;;;16.30;nan
22096;BME280;24083;55.670;37.568;2023-06-05T04:32:00;99370.22;;;15.65;nan
22096;BME280;24083;55.670;37.568;2023-06-05T04:34:27;99364.47;;;16.26;nan
22096;BME280;24083;55.670;37.568;2023-06-05T04:36:53;99369.09;;;16.61;nan
22096;BME280;24083;55.670;37.568;2023-06-05T04:42:23;99374.78;;;16.55;nan
22096;BME280;24083;55.670;37.568;2023-06-05T04:44:57;99357.94;;;16.19;nan
22096;BME280;24083;55.670;37.568;2023-06-05T04:47:44;99380.59;;;15.94;nan
22096;BME280;24083;55.670;37.568;2023-06-05T04:53:10;99368.13;;;15.70;nan
22096;BME280;24083;55.670;37.568;2023-06-05T04:55:38;99371.03;;;15.38;nan
22096;BME280;24083;55.670;37.568;2023-06-05T04:58:05;99366.56;;;16.34;nan
22096;BME280;24083;55.670;37.568;2023-06-05T05:00:50;99360.34;;;16.35;nan
22096;BME280;24083;55.670;37.568;2023-06-05T05:03:19;99375.06;;;15.16;nan
22096;BME280;24083;55.670;37.568;2023-06-05T05:05:46;99505.09;;;15.22;nan
22096;BME280;24083;55.670;37.568;2023-06-05T05:11:06;99442.00;;;15.93;nan
22096;BME280;24083;55.670;37.568;2023-06-05T05:16:02;99427.38;;;16.29;nan
22096;BME280;24083;55.670;37.568;2023-06-05T05:18:29;99419.97;;;16.08;nan
22096;BME280;24083;55.670;37.568;2023-06-05T05:20:56;99409.72;;;16.31;nan
22096;BME280;24083;55.670;37.568;2023-06-05T05:23:23;99413.50;;;16.79;nan
22096;BME280;24083;55.670;37.568;2023-06-05T05:25:54;99418.56;;;16.30;nan
22096;BME280;24083;55.670;37.568;2023-06-05T05:28:21;99415.69;;;17.11;nan
22096;BME280;24083;55.670;37.568;2023-06-05T05:30:49;99407.06;;;17.22;nan
22096;BME280;24083;55.670;37.568;2023-06-05T05:33:15;99394.03;;;17.80;nan
22096;BME280;24083;55.670;37.568;2023-06-05T05:35:44;99396.22;;;17.00;nan
22096;BME280;24083;55.670;37.568;2023-06-05T05:38:15;99419.00;;;16.63;nan
22096;BME280;24083;55.670;37.568;2023-06-05T05:40:42;99411.25;;;17.24;nan
22096;BME280;24083;55.670;37.568;2023-06-05T05:43:17;99409.41;;;17.38;nan
22096;BME280;24083;55.670;37.568;2023-06-05T05:45:44;99403.28;;;17.37;nan
22096;BME280;24083;55.670;37.568;2023-06-05T05:48:15;99404.00;;;17.15;nan
22096;BME280;24083;55.670;37.568;2023-06-05T05:50:41;99402.91;;;17.30;nan
22096;BME280;24083;55.670;37.568;2023-06-05T05:55:36;99410.13;;;16.76;nan
22096;BME280;24083;55.670;37.568;2023-06-05T06:00:46;99422.34;;;16.52;nan
22096;BME280;24083;55.670;37.568;2023-06-05T06:06:19;99432.22;;;16.74;nan
22096;BME280;24083;55.670;37.568;2023-06-05T06:08:52;99436.44;;;15.70;nan
22096;BME280;24083;55.670;37.568;2023-06-05T06:14:32;99443.22;;;15.60;nan
22096;BME280;24083;55.670;37.568;2023-06-05T06:17:00;99442.16;;;16.57;nan
22096;BME280;24083;55.670;37.568;2023-06-05T06:22:20;99427.72;;;16.76;nan
22096;BME280;24083;55.670;37.568;2023-06-05T06:24:47;99413.53;;;16.66;nan
22096;BME280;24083;55.670;37.568;2023-06-05T06:30:03;99416.53;;;16.85;nan
22096;BME280;24083;55.670;37.568;2023-06-05T06:32:35;99399.38;;;17.05;nan
22096;BME280;24083;55.670;37.568;2023-06-05T06:35:06;99405.09;;;16.60;nan
22096;BME280;24083;55.670;37.568;2023-06-05T06:40:03;99418.97;;;16.50;nan
22096;BME280;24083;55.670;37.568;2023-06-05T06:43:02;99407.63;;;16.36;nan
22096;BME280;24083;55.670;37.568;2023-06-05T06:45:52;99408.34;;;17.40;nan
22096;BME280;24083;55.670;37.568;2023-06-05T06:48:28;99393.88;;;17.09;nan
22096;BME280;24083;55.670;37.568;2023-06-05T06:50:54;99397.28;;;16.85;nan
22096;BME280;24083;55.670;37.568;2023-06-05T06:53:22;99405.00;;;16.36;nan
22096;BME280;24083;55.670;37.568;2023-06-05T07:02:18;99383.81;;;16.25;nan
22096;BME280;24083;55.670;37.568;2023-06-05T07:05:11;99392.88;;;16.21;nan
22096;BME280;24083;55.670;37.568;2023-06-05T07:07:39;99386.44;;;17.64;nan
22096;BME280;24083;55.670;37.568;2023-06-05T07:10:08;99388.69;;;17.20;nan
22096;BME280;24083;55.670;37.568;2023-06-05T07:15:05;99369.72;;;18.01;nan
22096;BME280;24083;55.670;37.568;2023-06-05T07:17:33;99380.84;;;16.81;nan
22096;BME280;24083;55.670;37.568;2023-06-05T07:20:00;99375.53;;;17.20;nan
22096;BME280;24083;55.670;37.568;2023-06-05T07:24:57;99368.13;;;16.88;nan
22096;BME280;24083;55.670;37.568;2023-06-05T07:29:55;99375.81;;;16.91;nan
22096;BME280;24083;55.670;37.568;2023-06-05T07:36:05;99374.22;;;17.01;nan
22096;BME280;24083;55.670;37.568;2023-06-05T07:38:31;99358.31;;;17.76;nan
22096;BME280;24083;55.670;37.568;2023-06-05T07:40:58;99359.19;;;18.23;nan
22096;BME280;24083;55.670;37.568;2023-06-05T07:49:29;99352.47;;;19.10;nan
22096;BME280;24083;55.670;37.568;2023-06-05T07:52:03;99351.00;;;18.04;nan
22096;BME280;24083;55.670;37.568;2023-06-05T07:57:29;99347.22;;;18.88;nan
22096;BME280;24083;55.670;37.568;2023-06-05T08:00:01;99346.22;;;19.55;nan
22096;BME280;24083;55.670;37.568;2023-06-05T08:02:38;99346.63;;;18.61;nan
22096;BME280;24083;55.670;37.568;2023-06-05T08:05:09;99341.19;;;19.20;nan
22096;BME280;24083;55.670;37.568;2023-06-05T08:07:35;99334.91;;;19.32;nan
22096;BME280;24083;55.670;37.568;2023-06-05T08:12:30;99334.28;;;20.36;nan
22096;BME280;24083;55.670;37.568;2023-06-05T08:14:56;99348.13;;;19.21;nan
22096;BME280;24083;55.670;37.568;2023-06-05T08:17:27;99337.63;;;18.75;nan
22096;BME280;24083;55.670;37.568;2023-06-05T08:20:02;99337.88;;;19.39;nan
22096;BME280;24083;55.670;37.568;2023-06-05T08:31:57;99330.69;;;18.97;nan
22096;BME280;24083;55.670;37.568;2023-06-05T08:37:20;99332.03;;;19.24;nan
22096;BME280;24083;55.670;37.568;2023-06-05T08:43:09;99324.28;;;19.43;nan
22096;BME280;24083;55.670;37.568;2023-06-05T08:48:54;99318.56;;;19.27;nan
22096;BME280;24083;55.670;37.568;2023-06-05T08:51:24;99321.69;;;18.54;nan
22096;BME280;24083;55.670;37.568;2023-06-05T08:53:55;99319.38;;;18.95;nan
22096;BME280;24083;55.670;37.568;2023-06-05T08:58:52;99308.53;;;19.09;nan
22096;BME280;24083;55.670;37.568;2023-06-05T09:01:46;99300.06;;;18.72;nan
22096;BME280;24083;55.670;37.568;2023-06-05T09:04:12;99320.72;;;19.33;nan
22096;BME280;24083;55.670;37.568;2023-06-05T09:09:35;99302.47;;;19.84;nan
22096;BME280;24083;55.670;37.568;2023-06-05T09:12:20;99282.41;;;21.15;nan
22096;BME280;24083;55.670;37.568;2023-06-05T09:14:51;99272.66;;;21.65;nan
22096;BME280;24083;55.670;37.568;2023-06-05T09:17:17;99275.13;;;21.27;nan
22096;BME280;24083;55.670;37.568;2023-06-05T09:19:52;99276.88;;;20.37;nan
22096;BME280;24083;55.670;37.568;2023-06-05T09:25:22;99271.72;;;20.35;nan
22096;BME280;24083;55.670;37.568;2023-06-05T09:28:08;99266.16;;;19.43;nan
22096;BME280;24083;55.670;37.568;2023-06-05T09:30:34;99267.25;;;20.05;nan
22096;BME280;24083;55.670;37.568;2023-06-05T09:33:19;99259.13;;;19.54;nan
22096;BME280;24083;55.670;37.568;2023-06-05T09:39:15;99250.09;;;19.78;nan
22096;BME280;24083;55.670;37.568;2023-06-05T09:41:46;99254.47;;;19.67;nan
22096;BME280;24083;55.670;37.568;2023-06-05T09:44:13;99246.59;;;19.35;nan
22096;BME280;24083;55.670;37.568;2023-06-05T09:52:34;99292.97;;;19.06;nan
22096;BME280;24083;55.670;37.568;2023-06-05T10:10:33;99289.75;;;19.56;nan
22096;BME280;24083;55.670;37.568;2023-06-05T10:13:00;99276.78;;;20.99;nan
22096;BME280;24083;55.670;37.568;2023-06-05T10:15:28;99265.78;;;21.13;nan
22096;BME280;24083;55.670;37.568;2023-06-05T10:25:24;99277.19;;;20.84;nan
22096;BME280;24083;55.670;37.568;2023-06-05T10:33:48;99257.69;;;21.05;nan
22096;BME280;24083;55.670;37.568;2023-06-05T10:51:34;99249.88;;;22.10;nan
22096;BME280;24083;55.670;37.568;2023-06-05T11:03:00;99236.97;;;22.81;nan
22096;BME280;24083;55.670;37.568;2023-06-05T11:05:29;99230.53;;;23.20;nan
22096;BME280;24083;55.670;37.568;2023-06-05T11:08:14;99226.75;;;22.02;nan
22096;BME280;24083;55.670;37.568;2023-06-05T11:13:48;99293.84;;;20.03;nan
22096;BME280;24083;55.670;37.568;2023-06-05T11:28:43;102549.50;;;15.54;nan
22096;BME280;24083;55.670;37.568;2023-06-05T11:33:43;102490.03;;;16.51;nan
22096;BME280;24083;55.670;37.568;2023-06-05T11:36:24;102494.66;;;18.01;nan
22096;BME280;24083;55.670;37.568;2023-06-05T11:48:12;102156.63;;;20.09;nan
22096;BME280;24083;55.670;37.568;2023-06-05T11:50:40;100833.50;;;20.69;nan
22096;BME280;24083;55.670;37.568;2023-06-05T11:53:18;100503.94;;;20.84;nan
22096;BME280;24083;55.670;37.568;2023-06-05T11:55:48;100489.19;;;21.43;nan
22096;BME280;24083;55.670;37.568;2023-06-05T11:58:25;100203.44;;;20.98;nan
22096;BME280;24083;55.670;37.568;2023-06-05T12:01:13;100064.13;;;20.36;nan
22096;BME280;24083;55.670;37.568;2023-06-05T12:03:44;99970.97;;;19.20;nan
22096;BME280;24083;55.670;37.568;2023-06-05T12:06:15;99834.97;;;18.87;nan
22096;BME280;24083;55.670;37.568;2023-06-05T12:11:27;99937.66;;;18.14;nan
22096;BME280;24083;55.670;37.568;2023-06-05T12:16:41;99961.34;;;17.46;nan
22096;BME280;24083;55.670;37.568;2023-06-05T12:19:13;100140.59;;;17.01;nan
22096;BME280;24083;55.670;37.568;2023-06-05T12:21:44;100040.81;;;17.82;nan
22096;BME280;24083;55.670;37.568;2023-06-05T12:24:14;99973.53;;;18.96;nan
22096;BME280;24083;55.670;37.568;2023-06-05T12:26:48;99948.16;;;18.54;nan
22096;BME280;24083;55.670;37.568;2023-06-05T12:29:53;99746.16;;;20.16;nan
22096;BME280;24083;55.670;37.568;2023-06-05T12:35:17;99304.66;;;23.05;nan
22096;BME280;24083;55.670;37.568;2023-06-05T12:37:45;99299.09;;;23.26;nan
22096;BME280;24083;55.670;37.568;2023-06-05T12:40:12;99296.06;;;21.79;nan
22096;BME280;24083;55.670;37.568;2023-06-05T12:42:41;99302.91;;;21.13;nan
22096;BME280;24083;55.670;37.568;2023-06-05T12:45:29;99293.94;;;22.41;nan
22096;BME280;24083;55.670;37.568;2023-06-05T12:47:57;99300.25;;;21.53;nan
22096;BME280;24083;55.670;37.568;2023-06-05T12:50:23;99292.16;;;21.05;nan
22096;BME280;24083;55.670;37.568;2023-06-05T12:52:52;99309.03;;;20.73;nan
22096;BME280;24083;55.670;37.568;2023-06-05T12:55:24;99295.91;;;20.61;nan
22096;BME280;24083;55.670;37.568;2023-06-05T12:57:49;99304.63;;;19.90;nan
22096;BME280;24083;55.670;37.568;2023-06-05T13:00:15;99305.47;;;20.43;nan
22096;BME280;24083;55.670;37.568;2023-06-05T13:02:43;99303.13;;;20.90;nan
22096;BME280;24083;55.670;37.568;2023-06-05T13:05:15;99298.25;;;20.96;nan
22096;BME280;24083;55.670;37.568;2023-06-05T13:10:32;99301.56;;;20.78;nan
22096;BME280;24083;55.670;37.568;2023-06-05T13:12:58;99301.94;;;20.73;nan
22096;BME280;24083;55.670;37.568;2023-06-05T13:15:24;99305.19;;;19.94;nan
22096;BME280;24083;55.670;37.568;2023-06-05T13:17:50;99294.22;;;19.56;nan
22096;BME280;24083;55.670;37.568;2023-06-05T13:20:15;99301.13;;;20.42;nan
22096;BME280;24083;55.670;37.568;2023-06-05T13:22:42;99298.56;;;21.12;nan
22096;BME280;24083;55.670;37.568;2023-06-05T13:25:07;99295.75;;;21.04;nan
22096;BME280;24083;55.670;37.568;2023-06-05T13:27:35;99284.47;;;21.41;nan
22096;BME280;24083;55.670;37.568;2023-06-05T13:30:01;99286.00;;;21.04;nan
22096;BME280;24083;55.670;37.568;2023-06-05T13:32:39;99284.59;;;20.90;nan
22096;BME280;24083;55.670;37.568;2023-06-05T13:35:07;99277.06;;;20.96;nan
22096;BME280;24083;55.670;37.568;2023-06-05T13:37:33;99281.00;;;20.60;nan
22096;BME280;24083;55.670;37.568;2023-06-05T13:39:58;99282.38;;;21.05;nan
22096;BME280;24083;55.670;37.568;2023-06-05T13:42:25;99274.75;;;22.09;nan
22096;BME280;24083;55.670;37.568;2023-06-05T13:44:51;99268.91;;;22.05;nan
22096;BME280;24083;55.670;37.568;2023-06-05T13:47:17;99255.97;;;22.86;nan
22096;BME280;24083;55.670;37.568;2023-06-05T13:49:43;99252.28;;;22.69;nan
22096;BME280;24083;55.670;37.568;2023-06-05T13:52:10;99253.78;;;23.18;nan
22096;BME280;24083;55.670;37.568;2023-06-05T13:54:36;99253.06;;;23.96;nan
22096;BME280;24083;55.670;37.568;2023-06-05T13:57:02;99246.13;;;23.33;nan
22096;BME280;24083;55.670;37.568;2023-06-05T13:59:28;99240.44;;;23.72;nan
22096;BME280;24083;55.670;37.568;2023-06-05T14:01:56;99247.91;;;22.22;nan
22096;BME280;24083;55.670;37.568;2023-06-05T14:04:21;99251.34;;;22.88;nan
22096;BME280;24083;55.670;37.568;2023-06-05T14:06:52;99238.19;;;24.55;nan
22096;BME280;24083;55.670;37.568;2023-06-05T14:09:20;99240.31;;;25.93;nan
22096;BME280;24083;55.670;37.568;2023-06-05T14:11:45;99234.44;;;26.86;nan
22096;BME280;24083;55.670;37.568;2023-06-05T14:17:11;99226.41;;;28.01;nan
22096;BME280;24083;55.670;37.568;2023-06-05T14:19:36;99222.09;;;28.82;nan
22096;BME280;24083;55.670;37.568;2023-06-05T14:22:02;99211.53;;;29.02;nan
22096;BME280;24083;55.670;37.568;2023-06-05T14:24:28;99216.06;;;29.01;nan
22096;BME280;24083;55.670;37.568;2023-06-05T14:26:55;99201.91;;;28.49;nan
22096;BME280;24083;55.670;37.568;2023-06-05T14:32:25;99213.34;;;25.30;nan
22096;BME280;24083;55.670;37.568;2023-06-05T14:34:56;99211.09;;;23.37;nan
22096;BME280;24083;55.670;37.568;2023-06-05T14:41:21;99191.50;;;26.16;nan
22096;BME280;24083;55.670;37.568;2023-06-05T14:43:46;99183.69;;;27.01;nan
22096;BME280;24083;55.670;37.568;2023-06-05T14:46:12;99191.34;;;27.43;nan
22096;BME280;24083;55.670;37.568;2023-06-05T14:48:43;99199.53;;;26.08;nan
22096;BME280;24083;55.670;37.568;2023-06-05T14:51:14;99190.66;;;27.49;nan
22096;BME280;24083;55.670;37.568;2023-06-05T14:53:50;99183.88;;;28.65;nan
22096;BME280;24083;55.670;37.568;2023-06-05T14:56:16;99180.25;;;27.69;nan
22096;BME280;24083;55.670;37.568;2023-06-05T15:02:36;99188.97;;;28.75;nan
22096;BME280;24083;55.670;37.568;2023-06-05T15:05:04;99190.16;;;28.72;nan
22096;BME280;24083;55.670;37.568;2023-06-05T15:13:37;99212.69;;;25.37;nan
22096;BME280;24083;55.670;37.568;2023-06-05T15:20:15;99219.75;;;23.39;nan
22096;BME280;24083;55.670;37.568;2023-06-05T15:29:22;99220.16;;;23.26;nan
22096;BME280;24083;55.670;37.568;2023-06-05T15:31:50;99225.88;;;22.67;nan
22096;BME280;24083;55.670;37.568;2023-06-05T15:34:17;99230.31;;;22.11;nan
22096;BME280;24083;55.670;37.568;2023-06-05T15:40:43;99229.72;;;21.79;nan
22096;BME280;24083;55.670;37.568;2023-06-05T15:43:13;99228.69;;;22.00;nan
22096;BME280;24083;55.670;37.568;2023-06-05T15:46:47;99241.75;;;20.35;nan
22096;BME280;24083;55.670;37.568;2023-06-05T15:49:16;99240.53;;;21.29;nan
22096;BME280;24083;55.670;37.568;2023-06-05T15:51:42;99231.88;;;21.66;nan
22096;BME280;24083;55.670;37.568;2023-06-05T15:54:13;99213.84;;;23.72;nan
22096;BME280;24083;55.670;37.568;2023-06-05T16:07:53;99197.97;;;30.31;nan
22096;BME280;24083;55.670;37.568;2023-06-05T16:16:23;99198.47;;;28.55;nan
22096;BME280;24083;55.670;37.568;2023-06-05T16:22:47;99198.28;;;30.08;nan
22096;BME280;24083;55.670;37.568;2023-06-05T16:25:13;99207.28;;;31.31;nan
22096;BME280;24083;55.670;37.568;2023-06-05T16:27:45;99198.53;;;31.82;nan
22096;BME280;24083;55.670;37.568;2023-06-05T16:47:17;99190.03;;;32.77;nan
22096;BME280;24083;55.670;37.568;2023-06-05T16:49:42;99200.63;;;28.45;nan
22096;BME280;24083;55.670;37.568;2023-06-05T16:52:08;99208.84;;;26.20;nan
22096;BME280;24083;55.670;37.568;2023-06-05T16:54:35;99206.94;;;27.39;nan
22096;BME280;24083;55.670;37.568;2023-06-05T16:57:03;99205.66;;;26.25;nan
22096;BME280;24083;55.670;37.568;2023-06-05T16:59:31;99203.63;;;27.14;nan
22096;BME280;24083;55.670;37.568;2023-06-05T17:07:43;99209.84;;;25.38;nan
22096;BME280;24083;55.670;37.568;2023-06-05T17:13:03;99209.66;;;24.82;nan
22096;BME280;24083;55.670;37.568;2023-06-05T17:15:28;99219.31;;;24.74;nan
22096;BME280;24083;55.670;37.568;2023-06-05T17:17:54;99218.91;;;23.92;nan
22096;BME280;24083;55.670;37.568;2023-06-05T17:20:32;99214.16;;;24.30;nan
22096;BME280;24083;55.670;37.568;2023-06-05T17:22:58;99216.22;;;24.53;nan
22096;BME280;24083;55.670;37.568;2023-06-05T17:25:24;99207.84;;;24.31;nan
22096;BME280;24083;55.670;37.568;2023-06-05T17:27:49;99215.72;;;23.17;nan
22096;BME280;24083;55.670;37.568;2023-06-05T17:33:07;99220.13;;;22.90;nan
22096;BME280;24083;55.670;37.568;2023-06-05T17:35:46;99226.75;;;23.04;nan
22096;BME280;24083;55.670;37.568;2023-06-05T17:44:13;99213.97;;;23.08;nan
22096;BME280;24083;55.670;37.568;2023-06-05T17:46:50;99224.22;;;22.66;nan
22096;BME280;24083;55.670;37.568;2023-06-05T17:52:32;99229.91;;;21.68;nan
22096;BME280;24083;55.670;37.568;2023-06-05T17:55:00;99232.97;;;22.11;nan
22096;BME280;24083;55.670;37.568;2023-06-05T17:57:29;99233.53;;;21.47;nan
22096;BME280;24083;55.670;37.568;2023-06-05T18:03:56;99232.44;;;20.91;nan
22096;BME280;24083;55.670;37.568;2023-06-05T18:06:24;99241.91;;;20.94;nan
22096;BME280;24083;55.670;37.568;2023-06-05T18:08:50;99248.88;;;20.95;nan
22096;BME280;24083;55.670;37.568;2023-06-05T18:11:16;99260.47;;;20.84;nan
22096;BME280;24083;55.670;37.568;2023-06-05T18:13:42;99269.97;;;19.93;nan
22096;BME280;24083;55.670;37.568;2023-06-05T18:16:10;99265.91;;;20.20;nan
22096;BME280;24083;55.670;37.568;2023-06-05T18:18:37;99269.88;;;20.26;nan
22096;BME280;24083;55.670;37.568;2023-06-05T18:21:03;99269.38;;;19.68;nan
22096;BME280;24083;55.670;37.568;2023-06-05T18:23:35;99278.47;;;19.76;nan
22096;BME280;24083;55.670;37.568;2023-06-05T18:26:03;99277.44;;;19.46;nan
22096;BME280;24083;55.670;37.568;2023-06-05T18:28:30;99277.69;;;19.42;nan
22096;BME280;24083;55.670;37.568;2023-06-05T18:30:55;99284.44;;;20.20;nan
22096;BME280;24083;55.670;37.568;2023-06-05T18:33:21;99281.19;;;18.88;nan
22096;BME280;24083;55.670;37.568;2023-06-05T18:38:39;99284.41;;;19.47;nan
22096;BME280;24083;55.670;37.568;2023-06-05T18:41:10;99283.72;;;19.33;nan
22096;BME280;24083;55.670;37.568;2023-06-05T18:43:36;99288.09;;;19.23;nan
22096;BME280;24083;55.670;37.568;2023-06-05T18:46:03;99286.53;;;18.53;nan
22096;BME280;24083;55.670;37.568;2023-06-05T18:48:31;99294.19;;;18.68;nan
22096;BME280;24083;55.670;37.568;2023-06-05T18:54:37;99301.56;;;19.08;nan
22096;BME280;24083;55.670;37.568;2023-06-05T18:59:39;99295.94;;;19.02;nan
22096;BME280;24083;55.670;37.568;2023-06-05T19:02:05;99300.91;;;18.72;nan
22096;BME280;24083;55.670;37.568;2023-06-05T19:10:56;99304.28;;;17.82;nan
22096;BME280;24083;55.670;37.568;2023-06-05T19:17:09;99316.91;;;17.29;nan
22096;BME280;24083;55.670;37.568;2023-06-05T19:19:36;99306.03;;;18.85;nan
22096;BME280;24083;55.670;37.568;2023-06-05T19:22:17;99308.31;;;18.90;nan
22096;BME280;24083;55.670;37.568;2023-06-05T19:37:45;99309.50;;;18.06;nan
22096;BME280;24083;55.670;37.568;2023-06-05T19:40:13;99307.97;;;18.03;nan
22096;BME280;24083;55.670;37.568;2023-06-05T19:42:41;99309.66;;;18.38;nan
22096;BME280;24083;55.670;37.568;2023-06-05T19:47:57;99312.41;;;18.14;nan
22096;BME280;24083;55.670;37.568;2023-06-05T19:50:24;99317.94;;;18.34;nan
22096;BME280;24083;55.670;37.568;2023-06-05T19:52:50;99321.78;;;18.30;nan